Cincinnati, Ohio
Traffic Map
Current Weather Conditions
Cincinnati, Ohio
Clear
Clear
68°
Feels Like: 68°
Wind Chill: 68° Ceiling: Unl
Heat Index: 68° Visibility: 10mi
Dew Point: 38° Wind: 18mph
Humidity: 33% Direction: 280° (W)
Pressure: 29.8in Gusts: 29mph
Raw Report DataKLUK 311753Z 28016G25KT 10SM CLR 20/03 A2980 RMK AO2 PK WND 28032/1731 SLP091 T02000033 10200 20094 55001
Traffic Incident Summary
Active as of:
Severity:
Category:
InformationThere was an issue retrieving the traffic information for this location. Please try a different location or try again shortly.
Advertisements
Track Severe Weather on mobile